Time;durP1;ratioP1;P1;durP2;ratioP2;P2;SDS_P1;SDS_P2;PMS_P1;PMS_P2;Temp;Humidity;BMP_temperature;BMP_pressure;BME280_temperature;BME280_humidity;BME280_pressure;Samples;Min_cycle;Max_cycle;Signal;HPM_P1;HPM_P2
2022/12/11 00:01:44;;;;;;;56.77;30.97;;;0.20;99.90;;;;;;4998139;28;20571;-68
2022/12/11 00:04:10;;;;;;;57.60;29.83;;;0.20;99.90;;;;;;5016290;28;20178;-68
2022/12/11 00:06:36;;;;;;;60.00;31.13;;;0.10;99.90;;;;;;5015706;28;20257;-68
2022/12/11 00:09:02;;;;;;;62.83;29.90;;;0.10;99.90;;;;;;5015231;28;20208;-68
2022/12/11 00:11:27;;;;;;;62.60;29.43;;;0.10;99.90;;;;;;5015564;28;20637;-68
2022/12/11 00:13:53;;;;;;;58.30;29.67;;;0.20;99.90;;;;;;5015501;28;20199;-68
2022/12/11 00:16:19;;;;;;;54.87;28.17;;;0.10;99.90;;;;;;5015843;28;20180;-68
2022/12/11 00:18:45;;;;;;;49.47;26.97;;;0.20;99.90;;;;;;5015590;28;20183;-68
2022/12/11 00:21:13;;;;;;;49.10;24.70;;;0.20;99.90;;;;;;5015585;28;20207;-69
2022/12/11 00:23:39;;;;;;;49.57;26.50;;;0.20;99.90;;;;;;5015201;28;20219;-69
2022/12/11 00:26:12;;;;;;;52.53;26.60;;;0.20;99.90;;;;;;5015395;28;20194;-68
2022/12/11 00:28:38;;;;;;;56.97;29.07;;;0.20;99.90;;;;;;4997659;28;20653;-68
2022/12/11 00:31:06;;;;;;;55.93;25.83;;;0.10;99.90;;;;;;5015249;28;20191;-68
2022/12/11 00:33:31;;;;;;;53.43;28.00;;;0.00;99.90;;;;;;4997519;28;20196;-68
2022/12/11 00:35:58;;;;;;;51.60;27.73;;;0.00;99.90;;;;;;5015169;28;20180;-69
2022/12/11 00:38:23;;;;;;;56.57;28.73;;;0.00;99.90;;;;;;5015428;28;20213;-68
2022/12/11 00:40:49;;;;;;;53.77;30.10;;;0.00;99.90;;;;;;5015031;28;20289;-69
2022/12/11 00:43:15;;;;;;;56.00;26.80;;;0.00;99.90;;;;;;5014951;28;20668;-68
2022/12/11 00:45:43;;;;;;;57.83;29.87;;;-0.10;99.90;;;;;;5014993;28;20182;-68
2022/12/11 00:48:10;;;;;;;54.70;28.13;;;0.00;99.90;;;;;;4997967;28;20180;-69
2022/12/11 00:50:37;;;;;;;62.13;30.93;;;-0.10;99.90;;;;;;5015077;28;20187;-69
2022/12/11 00:53:04;;;;;;;53.57;28.10;;;0.00;99.90;;;;;;5014803;28;20592;-68
2022/12/11 00:55:30;;;;;;;63.03;30.97;;;-0.10;99.90;;;;;;4997184;28;20262;-68
2022/12/11 00:57:57;;;;;;;59.97;29.20;;;-0.10;99.90;;;;;;5014755;28;20542;-68
2022/12/11 01:00:23;;;;;;;64.20;31.03;;;-0.10;99.90;;;;;;5014746;28;20706;-68
2022/12/11 01:02:49;;;;;;;58.97;29.33;;;-0.10;99.90;;;;;;5014747;28;20290;-69
2022/12/11 01:05:16;;;;;;;62.33;30.87;;;-0.10;99.90;;;;;;5014715;28;20161;-68
2022/12/11 01:07:41;;;;;;;60.97;29.33;;;-0.10;99.90;;;;;;5014649;28;20534;-68
2022/12/11 01:10:24;;;;;;;63.53;31.03;;;-0.10;99.90;;;;;;5014503;28;20180;-69
2022/12/11 01:12:55;;;;;;;67.40;30.13;;;-0.10;99.90;;;;;;4996784;28;20269;-68
2022/12/11 01:15:26;;;;;;;55.97;29.77;;;-0.10;99.90;;;;;;4996861;28;20184;-68
2022/12/11 01:17:52;;;;;;;61.70;29.00;;;-0.10;99.90;;;;;;5014843;28;20199;-68
2022/12/11 01:20:19;;;;;;;55.80;28.07;;;-0.10;99.90;;;;;;5013620;28;20207;-68
2022/12/11 01:22:45;;;;;;;56.43;29.13;;;-0.20;99.90;;;;;;5014537;28;20203;-69
2022/12/11 01:25:11;;;;;;;60.87;28.73;;;-0.20;99.90;;;;;;5014582;28;20163;-68
2022/12/11 01:27:37;;;;;;;61.77;29.77;;;-0.20;99.90;;;;;;5014229;28;20203;-69
2022/12/11 01:30:06;;;;;;;55.47;28.23;;;-0.20;99.90;;;;;;5014283;28;20189;-68
2022/12/11 01:32:32;;;;;;;62.00;28.17;;;-0.20;99.90;;;;;;5014278;28;20199;-68
2022/12/11 01:34:58;;;;;;;66.97;30.17;;;-0.20;99.90;;;;;;5014353;28;20180;-68
2022/12/11 01:37:23;;;;;;;59.70;29.67;;;-0.20;99.90;;;;;;4996481;28;20187;-68
2022/12/11 01:39:49;;;;;;;53.23;27.47;;;-0.20;99.90;;;;;;5013923;28;20239;-68
2022/12/11 01:42:18;;;;;;;54.43;27.83;;;-0.30;99.90;;;;;;5013983;28;20269;-68
2022/12/11 01:44:43;;;;;;;51.73;27.37;;;-0.20;99.90;;;;;;5014120;28;20540;-68
2022/12/11 01:47:10;;;;;;;55.93;27.43;;;-0.20;99.90;;;;;;4996396;28;20263;-68
2022/12/11 01:49:38;;;;;;;56.17;26.37;;;-0.20;99.90;;;;;;4996338;28;20183;-68
2022/12/11 01:52:12;;;;;;;55.27;28.70;;;-0.10;99.90;;;;;;5013753;28;20204;-68
2022/12/11 01:54:37;;;;;;;68.20;28.33;;;-0.20;99.90;;;;;;5013949;28;20168;-68
2022/12/11 01:57:07;;;;;;;51.83;25.00;;;-0.20;99.90;;;;;;5013764;28;20262;-68
2022/12/11 01:59:36;;;;;;;62.03;29.13;;;-0.30;99.90;;;;;;4996168;28;20742;-68
2022/12/11 02:02:05;;;;;;;60.73;29.23;;;-0.30;99.90;;;;;;5014045;28;20593;-68
2022/12/11 02:04:34;;;;;;;65.40;30.90;;;-0.30;99.90;;;;;;5013721;28;20175;-68
2022/12/11 02:07:00;;;;;;;61.43;28.53;;;-0.30;99.90;;;;;;5013617;28;20183;-68
2022/12/11 02:09:32;;;;;;;57.13;27.37;;;-0.40;99.90;;;;;;5013642;28;20188;-68
2022/12/11 02:12:16;;;;;;;52.90;25.27;;;-0.30;99.90;;;;;;5013993;28;20664;-68
2022/12/11 02:15:16;;;;;;;52.73;24.70;;;-0.30;99.90;;;;;;4996145;28;20597;-68
2022/12/11 02:17:50;;;;;;;54.13;26.43;;;-0.20;99.90;;;;;;5014239;28;20501;-68
2022/12/11 02:20:29;;;;;;;54.07;25.00;;;-0.20;99.90;;;;;;4995878;28;20245;-68
2022/12/11 02:23:22;;;;;;;55.30;26.97;;;-0.20;99.90;;;;;;5013928;28;20192;-69
2022/12/11 02:26:06;;;;;;;53.07;25.27;;;-0.20;99.90;;;;;;4995869;28;20183;-69
2022/12/11 02:28:35;;;;;;;50.20;25.83;;;-0.30;99.90;;;;;;4996225;28;20192;-68
2022/12/11 02:31:26;;;;;;;54.27;24.73;;;-0.30;99.90;;;;;;5013603;28;20183;-68
2022/12/11 02:34:10;;;;;;;56.30;26.43;;;-0.30;99.90;;;;;;5000108;28;20199;-68
2022/12/11 02:36:40;;;;;;;55.53;25.23;;;-0.30;99.90;;;;;;5017368;28;20164;-68
2022/12/11 02:39:11;;;;;;;51.90;26.17;;;-0.20;99.90;;;;;;5017269;28;20740;-68
2022/12/11 02:41:42;;;;;;;54.73;25.10;;;-0.20;99.90;;;;;;5017702;28;20274;-68
2022/12/11 02:44:11;;;;;;;59.70;27.27;;;-0.20;99.90;;;;;;4999699;28;20180;-68
2022/12/11 02:46:38;;;;;;;55.00;25.90;;;-0.20;99.90;;;;;;5017209;28;20164;-68
2022/12/11 02:49:06;;;;;;;52.67;26.03;;;-0.10;99.90;;;;;;5017123;28;20180;-68
2022/12/11 02:51:37;;;;;;;62.70;26.03;;;-0.20;99.90;;;;;;5017033;28;20203;-68
2022/12/11 02:54:08;;;;;;;57.70;25.90;;;-0.20;99.90;;;;;;4999558;28;20275;-68
2022/12/11 02:57:09;;;;;;;53.93;26.93;;;-0.20;99.90;;;;;;5017305;28;20156;-68
2022/12/11 02:59:39;;;;;;;57.80;25.67;;;-0.20;99.90;;;;;;5013767;28;20223;-68
2022/12/11 03:02:05;;;;;;;56.53;26.67;;;-0.10;99.90;;;;;;5017073;28;20203;-68
2022/12/11 03:04:35;;;;;;;53.33;26.23;;;-0.10;99.90;;;;;;5017204;28;20179;-68
2022/12/11 03:07:17;;;;;;;57.80;25.43;;;-0.20;99.90;;;;;;4999043;28;20179;-68
2022/12/11 03:09:46;;;;;;;66.17;27.70;;;-0.10;99.90;;;;;;5017030;28;20190;-68
2022/12/11 03:12:16;;;;;;;58.30;26.10;;;-0.10;99.90;;;;;;5016738;28;20269;-68
2022/12/11 03:14:42;;;;;;;55.67;25.77;;;-0.10;99.90;;;;;;5016677;28;20179;-68
2022/12/11 03:17:47;;;;;;;63.63;27.20;;;-0.10;99.90;;;;;;5016719;28;20178;-68
2022/12/11 03:20:31;;;;;;;54.33;28.40;;;-0.10;99.90;;;;;;5015805;28;20219;-68
2022/12/11 03:23:32;;;;;;;54.33;24.63;;;-0.10;99.90;;;;;;5016329;28;20266;-68
2022/12/11 03:26:09;;;;;;;49.17;25.23;;;0.00;99.90;;;;;;5016608;28;20183;-68
2022/12/11 03:28:46;;;;;;;53.50;25.40;;;0.00;99.90;;;;;;5016731;28;20155;-68
2022/12/11 03:31:37;;;;;;;46.37;25.03;;;0.00;99.90;;;;;;5016442;28;20187;-68
2022/12/11 03:34:26;;;;;;;55.60;26.07;;;0.00;99.90;;;;;;5016311;28;20290;-68
2022/12/11 03:36:55;;;;;;;55.63;25.57;;;0.00;99.90;;;;;;5015563;28;20192;-68
2022/12/11 03:39:36;;;;;;;53.67;26.67;;;0.00;99.90;;;;;;4999061;28;20208;-68
2022/12/11 03:42:07;;;;;;;55.10;25.93;;;0.00;99.90;;;;;;5016344;28;20188;-68
2022/12/11 03:44:34;;;;;;;44.53;24.47;;;0.00;99.90;;;;;;5015675;28;20628;-68
2022/12/11 03:47:03;;;;;;;50.57;25.03;;;0.10;99.90;;;;;;5017460;28;20175;-68
2022/12/11 03:49:33;;;;;;;52.93;26.17;;;0.10;99.90;;;;;;5000296;28;20660;-68
2022/12/11 03:52:01;;;;;;;59.10;26.70;;;0.00;99.90;;;;;;5001558;28;20196;-68
2022/12/11 03:54:27;;;;;;;62.17;26.37;;;0.00;99.90;;;;;;5017453;28;20172;-69
2022/12/11 03:56:56;;;;;;;58.60;27.10;;;0.00;99.90;;;;;;4998522;28;20184;-68
2022/12/11 03:59:22;;;;;;;55.97;26.37;;;0.00;99.90;;;;;;4998665;28;20691;-69
2022/12/11 04:01:49;;;;;;;54.10;25.40;;;0.00;99.90;;;;;;4998349;28;20196;-68
2022/12/11 04:04:15;;;;;;;60.23;28.87;;;0.10;99.90;;;;;;5016535;28;20199;-68
2022/12/11 04:06:41;;;;;;;60.37;28.23;;;0.00;99.90;;;;;;5015688;28;20200;-68
2022/12/11 04:09:07;;;;;;;68.93;29.40;;;0.10;99.90;;;;;;5015691;28;20180;-69
2022/12/11 04:11:33;;;;;;;77.37;28.90;;;0.10;99.90;;;;;;5015573;28;20262;-68
2022/12/11 04:16:44;;;;;;;76.37;28.83;;;0.00;99.90;;;;;;5016006;28;20199;-68
2022/12/11 04:24:38;;;;;;;70.07;28.37;;;0.00;99.90;;;;;;5015393;28;20238;-68
2022/12/11 04:27:03;;;;;;;69.40;28.93;;;0.10;99.90;;;;;;5015326;28;20226;-69
2022/12/11 04:29:29;;;;;;;77.70;30.03;;;0.10;99.90;;;;;;4997734;28;20179;-69
2022/12/11 04:31:55;;;;;;;66.67;29.53;;;0.10;99.90;;;;;;5015178;28;20219;-68
2022/12/11 04:34:21;;;;;;;69.47;30.23;;;0.10;99.90;;;;;;4997746;28;20183;-68
2022/12/11 04:36:46;;;;;;;70.43;29.83;;;0.10;99.90;;;;;;5015090;28;20179;-68
2022/12/11 04:39:12;;;;;;;78.37;31.83;;;0.10;99.90;;;;;;5015186;28;20186;-69
2022/12/11 04:41:39;;;;;;;69.93;30.30;;;0.10;99.90;;;;;;5015085;28;20192;-69
2022/12/11 04:44:05;;;;;;;73.63;30.83;;;0.10;99.90;;;;;;4997491;28;20649;-68
2022/12/11 04:46:32;;;;;;;72.43;30.70;;;0.10;99.90;;;;;;4997376;28;20176;-68
2022/12/11 04:48:59;;;;;;;73.40;29.83;;;0.10;99.90;;;;;;5015020;28;20175;-68
2022/12/11 04:51:26;;;;;;;80.03;33.23;;;0.10;99.90;;;;;;4997259;28;20175;-68
2022/12/11 04:53:52;;;;;;;75.33;31.47;;;0.10;99.90;;;;;;5014744;28;20183;-69
2022/12/11 04:56:19;;;;;;;71.33;30.70;;;0.20;99.90;;;;;;5015242;28;20267;-68
2022/12/11 04:58:45;;;;;;;75.17;32.13;;;0.20;99.90;;;;;;4997061;28;20266;-68
2022/12/11 05:01:20;;;;;;;72.57;31.00;;;0.20;99.90;;;;;;5015118;28;20195;-68
2022/12/11 05:03:45;;;;;;;79.73;34.77;;;0.20;99.90;;;;;;5015019;28;20563;-68
2022/12/11 05:06:12;;;;;;;95.00;34.90;;;0.20;99.90;;;;;;4996914;28;20172;-68
2022/12/11 05:08:40;;;;;;;86.27;34.63;;;0.20;99.90;;;;;;5014819;28;20184;-68
2022/12/11 05:11:09;;;;;;;85.70;34.37;;;0.20;99.90;;;;;;5014536;28;20172;-68
2022/12/11 05:13:35;;;;;;;79.60;32.63;;;0.20;99.90;;;;;;4996833;28;20199;-68
2022/12/11 05:16:03;;;;;;;84.03;34.33;;;0.20;99.90;;;;;;5014506;28;20222;-68
2022/12/11 05:18:29;;;;;;;82.03;31.30;;;0.30;99.90;;;;;;5014796;28;20537;-70
2022/12/11 05:21:00;;;;;;;68.10;31.83;;;0.30;99.90;;;;;;4997027;28;20294;-69
2022/12/11 05:23:27;;;;;;;64.73;29.30;;;0.10;99.90;;;;;;5014222;28;20580;-68
2022/12/11 05:25:58;;;;;;;83.30;32.70;;;0.10;99.90;;;;;;5014192;28;20211;-68
2022/12/11 05:28:25;;;;;;;76.30;32.40;;;0.10;99.90;;;;;;4996920;28;20550;-68
2022/12/11 05:30:59;;;;;;;75.13;32.63;;;0.10;99.90;;;;;;5014276;28;20648;-68
2022/12/11 05:33:24;;;;;;;66.37;32.07;;;0.00;99.90;;;;;;4996652;28;20196;-68
2022/12/11 05:35:51;;;;;;;80.30;32.67;;;0.00;99.90;;;;;;5013991;28;20179;-68
2022/12/11 05:38:16;;;;;;;73.87;31.67;;;0.00;99.90;;;;;;5014170;28;20261;-68
2022/12/11 05:40:43;;;;;;;80.43;33.83;;;0.00;99.90;;;;;;4996310;28;20219;-68
2022/12/11 05:43:09;;;;;;;88.10;36.47;;;0.10;99.90;;;;;;5014002;28;20654;-68
2022/12/11 05:45:34;;;;;;;94.47;38.03;;;0.10;99.90;;;;;;5013965;28;20200;-68
2022/12/11 05:48:00;;;;;;;90.23;34.73;;;0.10;99.90;;;;;;5013840;28;20199;-69
2022/12/11 05:50:26;;;;;;;82.30;34.13;;;0.10;99.90;;;;;;5013792;28;20258;-69
2022/12/11 05:52:52;;;;;;;78.93;34.40;;;0.10;99.90;;;;;;4996312;28;20203;-68
2022/12/11 05:55:17;;;;;;;77.93;33.97;;;0.10;99.90;;;;;;5014420;28;20180;-68
2022/12/11 05:57:43;;;;;;;81.13;35.57;;;0.10;99.90;;;;;;5013802;28;20190;-69
2022/12/11 06:00:11;;;;;;;81.43;35.67;;;0.00;99.90;;;;;;4996113;28;20622;-68
2022/12/11 06:02:37;;;;;;;84.93;36.47;;;0.10;99.90;;;;;;4996006;28;20202;-67
2022/12/11 06:05:03;;;;;;;79.53;32.73;;;0.10;99.90;;;;;;5013707;28;20172;-68
2022/12/11 06:07:29;;;;;;;96.63;34.43;;;0.10;99.90;;;;;;5013243;28;20539;-67
2022/12/11 06:09:54;;;;;;;80.60;33.43;;;0.10;99.90;;;;;;5013689;28;20703;-67
2022/12/11 06:12:20;;;;;;;83.30;33.97;;;0.10;99.90;;;;;;5013440;28;20204;-67
2022/12/11 06:14:46;;;;;;;80.40;33.27;;;0.10;99.90;;;;;;5014126;28;20231;-68
2022/12/11 06:17:11;;;;;;;84.30;34.03;;;0.10;99.90;;;;;;5013736;28;20168;-67
2022/12/11 06:19:37;;;;;;;82.57;32.97;;;0.00;99.90;;;;;;4995829;28;20202;-67
2022/12/11 06:22:03;;;;;;;84.90;32.40;;;0.10;99.90;;;;;;5013293;28;20712;-67
2022/12/11 06:24:29;;;;;;;79.37;33.23;;;0.10;99.90;;;;;;5013501;28;20660;-67
2022/12/11 06:26:55;;;;;;;70.43;30.50;;;0.00;99.90;;;;;;5013376;28;20179;-67
2022/12/11 06:29:21;;;;;;;73.00;31.07;;;0.00;99.90;;;;;;4995779;28;20603;-67
2022/12/11 06:31:46;;;;;;;80.50;32.37;;;0.10;99.90;;;;;;4995678;28;20196;-68
2022/12/11 06:34:13;;;;;;;75.73;31.67;;;0.10;99.90;;;;;;4995855;28;20183;-68
2022/12/11 06:36:39;;;;;;;80.93;31.50;;;0.10;99.90;;;;;;5013117;28;20222;-68
2022/12/11 06:39:05;;;;;;;75.70;32.23;;;0.00;99.90;;;;;;4995711;28;20187;-68
2022/12/11 06:41:31;;;;;;;76.50;32.37;;;0.00;99.90;;;;;;5013414;28;20258;-68
2022/12/11 06:43:57;;;;;;;68.40;30.00;;;0.00;99.90;;;;;;4995719;28;20176;-68
2022/12/11 06:46:22;;;;;;;76.23;29.53;;;0.10;99.90;;;;;;4995629;28;20645;-68
2022/12/11 06:48:49;;;;;;;87.23;32.53;;;0.10;99.90;;;;;;5013881;28;20164;-68
2022/12/11 06:51:18;;;;;;;80.37;30.70;;;0.10;99.90;;;;;;5013045;28;20166;-68
2022/12/11 06:53:44;;;;;;;78.50;34.70;;;0.10;99.90;;;;;;4995626;28;20275;-68
2022/12/11 06:56:12;;;;;;;80.00;33.53;;;0.10;99.90;;;;;;4995517;28;20183;-68
2022/12/11 06:58:38;;;;;;;73.27;33.20;;;0.10;99.90;;;;;;5013566;28;20201;-68
2022/12/11 07:01:14;;;;;;;83.37;31.30;;;0.10;99.90;;;;;;5013285;28;20208;-68
2022/12/11 07:03:40;;;;;;;66.73;30.63;;;0.00;99.90;;;;;;4995554;28;20183;-68
2022/12/11 07:06:06;;;;;;;61.10;28.87;;;0.00;99.90;;;;;;4995295;28;20570;-68
2022/12/11 07:08:32;;;;;;;70.43;29.60;;;0.00;99.90;;;;;;5013467;28;20190;-68
2022/12/11 07:11:07;;;;;;;68.13;31.03;;;0.10;99.90;;;;;;4995498;28;20255;-68
2022/12/11 07:13:33;;;;;;;62.87;27.53;;;0.10;99.90;;;;;;5012979;28;20206;-68
2022/12/11 07:16:00;;;;;;;69.23;28.60;;;0.10;99.90;;;;;;5012935;28;20262;-68
2022/12/11 07:18:26;;;;;;;63.10;27.77;;;0.10;99.90;;;;;;5013099;28;20172;-68
2022/12/11 07:20:52;;;;;;;78.23;31.53;;;0.10;99.90;;;;;;4998867;28;20223;-68
2022/12/11 07:23:18;;;;;;;67.07;28.97;;;0.10;99.90;;;;;;5000913;28;20732;-69
2022/12/11 07:25:45;;;;;;;64.00;29.13;;;0.10;99.90;;;;;;5015318;28;20250;-68
2022/12/11 07:28:10;;;;;;;60.83;27.63;;;0.10;99.90;;;;;;5017110;28;20148;-68
2022/12/11 07:30:37;;;;;;;51.77;24.77;;;0.10;99.90;;;;;;5016423;28;20180;-68
2022/12/11 07:33:03;;;;;;;54.93;25.53;;;0.10;99.90;;;;;;5014819;28;20258;-68
2022/12/11 07:35:29;;;;;;;46.47;23.93;;;0.10;99.90;;;;;;5015374;28;20587;-68
2022/12/11 07:37:54;;;;;;;45.27;25.57;;;0.10;99.90;;;;;;5015074;28;20180;-67
2022/12/11 07:40:20;;;;;;;48.17;24.13;;;0.10;99.90;;;;;;5014117;28;20208;-68
2022/12/11 07:42:46;;;;;;;47.50;22.03;;;0.10;99.90;;;;;;5014925;28;20226;-68
2022/12/11 07:45:12;;;;;;;48.27;23.57;;;0.20;99.90;;;;;;5016115;28;20542;-69
2022/12/11 07:47:38;;;;;;;46.33;22.93;;;0.20;99.90;;;;;;5014889;28;20180;-75
2022/12/11 07:50:04;;;;;;;55.53;24.50;;;0.20;99.90;;;;;;5014834;28;20206;-68
2022/12/11 07:52:29;;;;;;;41.07;22.53;;;0.20;99.90;;;;;;5016169;28;20633;-68
2022/12/11 07:54:55;;;;;;;38.80;21.07;;;0.30;99.90;;;;;;5015967;28;20191;-68
2022/12/11 07:57:21;;;;;;;36.10;21.37;;;0.20;99.90;;;;;;5016206;28;20182;-68
2022/12/11 07:59:46;;;;;;;35.27;20.40;;;0.20;99.90;;;;;;5016446;28;20203;-67
2022/12/11 08:02:12;;;;;;;39.73;21.80;;;0.30;99.90;;;;;;5015958;28;20333;-67
2022/12/11 08:04:38;;;;;;;39.83;21.13;;;0.30;99.90;;;;;;5015696;28;20156;-67
2022/12/11 08:07:03;;;;;;;34.07;21.17;;;0.30;99.90;;;;;;5015656;28;20172;-67
2022/12/11 08:09:29;;;;;;;35.90;19.53;;;0.30;99.90;;;;;;5015793;28;20556;-67
2022/12/11 08:11:55;;;;;;;37.77;20.20;;;0.30;99.90;;;;;;5030716;28;20254;-67
2022/12/11 08:14:21;;;;;;;36.13;19.90;;;0.30;99.90;;;;;;5030816;28;20180;-67
2022/12/11 08:16:47;;;;;;;34.87;19.40;;;0.30;99.90;;;;;;5015494;28;20256;-67
2022/12/11 08:19:14;;;;;;;37.40;19.20;;;0.30;99.90;;;;;;5015726;28;20168;-67
2022/12/11 08:21:39;;;;;;;35.90;18.30;;;0.30;99.90;;;;;;5015316;28;20192;-67
2022/12/11 08:24:05;;;;;;;29.23;17.80;;;0.40;99.90;;;;;;5015313;28;20196;-67
2022/12/11 08:26:31;;;;;;;32.23;19.43;;;0.30;99.90;;;;;;5015287;28;20176;-67
2022/12/11 08:28:59;;;;;;;33.20;19.43;;;0.30;99.90;;;;;;5015508;28;20160;-67
2022/12/11 08:31:25;;;;;;;34.77;20.57;;;0.30;99.90;;;;;;5014742;28;20184;-67
2022/12/11 08:33:51;;;;;;;32.53;18.97;;;0.30;99.90;;;;;;5015403;28;20183;-64
2022/12/11 08:36:21;;;;;;;27.77;18.53;;;0.30;99.90;;;;;;5015113;28;20183;-64
2022/12/11 08:38:47;;;;;;;27.97;17.47;;;0.40;99.90;;;;;;5014935;28;20703;-65
2022/12/11 08:41:16;;;;;;;25.83;17.73;;;0.40;99.90;;;;;;5014938;28;20569;-64
2022/12/11 08:43:42;;;;;;;26.37;17.33;;;0.40;99.90;;;;;;5015366;28;20262;-64
2022/12/11 08:46:09;;;;;;;29.97;18.33;;;0.50;99.90;;;;;;5014840;28;20266;-65
2022/12/11 08:48:36;;;;;;;37.90;19.37;;;0.50;99.90;;;;;;5014905;28;20168;-65
2022/12/11 08:51:04;;;;;;;28.23;19.27;;;0.50;99.90;;;;;;5014898;28;20172;-68
2022/12/11 08:53:30;;;;;;;30.93;19.37;;;0.50;99.90;;;;;;5013486;28;20199;-67
2022/12/11 08:56:04;;;;;;;27.80;17.80;;;0.50;99.90;;;;;;5013685;28;20180;-67
2022/12/11 08:58:30;;;;;;;27.73;18.97;;;0.50;99.90;;;;;;5015089;28;20171;-67
2022/12/11 09:00:56;;;;;;;30.77;19.43;;;0.50;99.90;;;;;;5015131;28;20560;-71
2022/12/11 09:03:22;;;;;;;29.83;19.10;;;0.40;99.90;;;;;;5014729;28;20202;-71
2022/12/11 09:05:48;;;;;;;33.50;20.90;;;0.40;99.90;;;;;;5013415;28;20580;-67
2022/12/11 09:08:13;;;;;;;31.07;18.67;;;0.40;99.90;;;;;;5013352;28;20736;-67
2022/12/11 09:10:39;;;;;;;29.87;20.10;;;0.40;99.90;;;;;;5014452;28;20188;-67
2022/12/11 09:13:05;;;;;;;31.60;20.00;;;0.50;99.90;;;;;;4996888;28;20210;-67
2022/12/11 09:15:31;;;;;;;30.17;19.73;;;0.50;99.90;;;;;;5014793;28;20543;-67
2022/12/11 09:17:56;;;;;;;25.60;16.80;;;0.40;99.90;;;;;;5013092;28;20279;-67
2022/12/11 09:20:22;;;;;;;26.43;16.67;;;0.40;99.90;;;;;;5014579;28;20222;-67
2022/12/11 09:22:48;;;;;;;22.03;16.47;;;0.40;99.90;;;;;;4996549;28;20211;-67
2022/12/11 09:25:14;;;;;;;19.53;14.90;;;0.30;99.90;;;;;;5012974;28;20547;-67
2022/12/11 09:27:39;;;;;;;20.00;15.40;;;0.30;99.90;;;;;;5014319;28;20176;-67
2022/12/11 09:30:06;;;;;;;25.80;16.27;;;0.40;99.90;;;;;;5014643;28;20686;-67
2022/12/11 09:32:31;;;;;;;26.43;17.63;;;0.40;99.90;;;;;;5014444;28;20194;-67
2022/12/11 09:34:57;;;;;;;25.40;17.47;;;0.30;99.90;;;;;;5014141;28;20180;-67
2022/12/11 09:37:23;;;;;;;27.53;17.90;;;0.30;99.90;;;;;;5012816;28;20649;-67
2022/12/11 09:39:49;;;;;;;26.73;18.87;;;0.30;99.90;;;;;;5014244;28;20199;-67
2022/12/11 09:42:29;;;;;;;30.83;18.97;;;0.30;99.90;;;;;;5014058;28;20203;-67
2022/12/11 09:44:59;;;;;;;25.50;17.50;;;0.30;99.90;;;;;;5015394;28;20160;-66
2022/12/11 09:47:33;;;;;;;27.43;18.43;;;0.30;99.90;;;;;;5014711;28;20168;-66
2022/12/11 09:50:23;;;;;;;25.43;16.97;;;0.30;99.90;;;;;;5012960;28;20198;-67
2022/12/11 09:53:04;;;;;;;27.93;18.80;;;0.40;99.90;;;;;;5014131;28;20554;-66
2022/12/11 09:55:48;;;;;;;26.43;17.93;;;0.40;99.90;;;;;;4996211;28;20183;-66
2022/12/11 09:58:20;;;;;;;27.73;17.63;;;0.40;99.90;;;;;;5014147;28;20180;-66
2022/12/11 10:01:10;;;;;;;24.10;18.70;;;0.40;99.90;;;;;;5014017;28;20195;-66
2022/12/11 10:04:08;;;;;;;24.40;15.73;;;0.40;99.90;;;;;;4959959;28;20208;-67
2022/12/11 10:06:42;;;;;;;22.67;17.13;;;0.40;99.90;;;;;;4996006;28;20176;-67
2022/12/11 10:09:23;;;;;;;24.70;16.17;;;0.40;99.90;;;;;;5012282;28;20168;-67
2022/12/11 10:12:10;;;;;;;25.53;17.07;;;0.40;99.90;;;;;;5012196;28;20250;-66
2022/12/11 10:14:36;;;;;;;25.33;16.97;;;0.30;99.90;;;;;;5013566;28;20245;-67
2022/12/11 10:17:11;;;;;;;21.67;15.93;;;0.30;99.90;;;;;;5013562;28;20671;-66
2022/12/11 10:19:38;;;;;;;19.03;14.47;;;0.30;99.90;;;;;;5013758;28;20270;-66
2022/12/11 10:22:08;;;;;;;23.57;15.80;;;0.30;99.90;;;;;;5013650;28;20187;-67
2022/12/11 10:24:43;;;;;;;20.53;14.70;;;0.30;99.90;;;;;;5013337;28;20196;-67
2022/12/11 10:27:19;;;;;;;20.20;15.33;;;0.30;99.90;;;;;;5014009;28;20238;-67
2022/12/11 10:29:50;;;;;;;25.77;16.57;;;0.40;99.90;;;;;;5013766;28;20156;-67
2022/12/11 10:32:41;;;;;;;20.70;14.13;;;0.30;99.90;;;;;;5012129;28;20255;-66
2022/12/11 10:35:09;;;;;;;18.60;12.97;;;0.30;99.90;;;;;;5013422;28;20234;-66
2022/12/11 10:37:35;;;;;;;18.77;13.97;;;0.30;99.90;;;;;;5013971;28;20164;-69
2022/12/11 10:40:01;;;;;;;20.07;14.20;;;0.40;99.90;;;;;;5011815;28;20262;-69
2022/12/11 10:42:27;;;;;;;19.57;15.10;;;0.40;99.90;;;;;;5012250;28;20194;-69
2022/12/11 10:45:03;;;;;;;20.67;13.83;;;0.40;99.90;;;;;;5013702;28;20208;-67
2022/12/11 10:47:30;;;;;;;21.47;14.63;;;0.40;99.90;;;;;;5013338;28;20186;-67
2022/12/11 10:49:57;;;;;;;22.70;15.97;;;0.40;99.90;;;;;;5012060;28;20183;-67
2022/12/11 10:52:46;;;;;;;23.70;17.53;;;0.40;99.90;;;;;;5013281;28;20758;-67
2022/12/11 10:55:23;;;;;;;17.07;14.17;;;0.40;99.90;;;;;;5006660;28;20195;-67
2022/12/11 10:58:02;;;;;;;21.63;15.27;;;0.40;99.90;;;;;;5015804;28;20183;-67
2022/12/11 11:00:32;;;;;;;24.73;16.37;;;0.50;99.90;;;;;;5015613;28;20676;-67
2022/12/11 11:03:00;;;;;;;21.67;15.93;;;0.50;99.90;;;;;;5015618;28;20200;-67
2022/12/11 11:05:33;;;;;;;19.63;14.37;;;0.50;99.90;;;;;;5015667;28;20175;-67
2022/12/11 11:08:12;;;;;;;23.23;15.27;;;0.50;99.90;;;;;;5017143;28;20198;-67
2022/12/11 11:10:55;;;;;;;19.63;14.37;;;0.50;99.90;;;;;;5016576;28;20583;-67
2022/12/11 11:13:30;;;;;;;20.23;13.93;;;0.40;99.90;;;;;;5017714;28;20657;-67
2022/12/11 11:16:00;;;;;;;19.87;14.07;;;0.40;99.90;;;;;;5016972;28;20213;-67
2022/12/11 11:18:27;;;;;;;16.63;13.83;;;0.40;99.90;;;;;;5016598;28;20176;-67
2022/12/11 11:20:54;;;;;;;20.07;14.63;;;0.50;99.90;;;;;;5016806;28;20200;-67
2022/12/11 11:23:22;;;;;;;18.77;14.27;;;0.50;99.90;;;;;;5017490;28;20234;-67
2022/12/11 11:26:08;;;;;;;19.07;15.60;;;0.50;99.90;;;;;;5031715;28;20179;-67
2022/12/11 11:28:41;;;;;;;21.60;14.97;;;0.60;99.90;;;;;;5016782;28;20252;-67
2022/12/11 11:31:12;;;;;;;22.73;15.80;;;0.60;99.90;;;;;;5016837;28;20183;-67
2022/12/11 11:33:54;;;;;;;19.80;15.10;;;0.60;99.90;;;;;;5016876;28;20207;-67
2022/12/11 11:36:24;;;;;;;20.27;14.57;;;0.60;99.90;;;;;;5031666;28;20229;-67
2022/12/11 11:39:05;;;;;;;24.53;16.60;;;0.60;99.90;;;;;;5031632;28;20576;-67
2022/12/11 11:41:45;;;;;;;21.60;14.67;;;0.60;99.90;;;;;;5016482;28;20223;-67
2022/12/11 11:44:15;;;;;;;20.33;14.90;;;0.70;99.90;;;;;;5031567;28;20652;-67
2022/12/11 11:46:46;;;;;;;19.50;14.23;;;0.70;99.90;;;;;;5016231;28;20259;-67
2022/12/11 11:49:40;;;;;;;21.03;15.83;;;0.70;99.90;;;;;;5016088;28;20200;-67
2022/12/11 11:52:18;;;;;;;17.70;13.83;;;0.70;99.90;;;;;;4986775;28;20602;-67
2022/12/11 11:55:08;;;;;;;18.40;13.90;;;0.70;99.90;;;;;;5031065;28;20262;-67
2022/12/11 11:57:43;;;;;;;19.43;14.30;;;0.70;99.90;;;;;;5031219;28;20168;-67
2022/12/11 12:00:17;;;;;;;25.10;16.00;;;0.60;99.90;;;;;;5015888;28;20195;-67
2022/12/11 12:02:45;;;;;;;22.50;14.90;;;0.70;99.90;;;;;;5031016;28;20249;-67
2022/12/11 12:05:12;;;;;;;22.83;15.30;;;0.70;99.90;;;;;;5015646;28;20207;-67
2022/12/11 12:07:47;;;;;;;20.00;13.43;;;0.60;99.90;;;;;;5016084;28;20176;-67
2022/12/11 12:10:20;;;;;;;20.73;14.67;;;0.70;99.90;;;;;;5015485;28;20187;-67
2022/12/11 12:13:12;;;;;;;17.93;14.13;;;0.70;99.90;;;;;;5016051;28;20282;-67
2022/12/11 12:15:52;;;;;;;20.27;14.83;;;0.70;99.90;;;;;;5015454;28;20175;-67
2022/12/11 12:18:42;;;;;;;18.70;13.77;;;0.70;99.90;;;;;;5016025;28;20174;-67
2022/12/11 12:21:36;;;;;;;21.73;13.83;;;0.70;99.90;;;;;;5015555;28;20207;-67
2022/12/11 12:24:01;;;;;;;20.30;13.87;;;0.80;99.90;;;;;;5015153;28;20275;-67
2022/12/11 12:26:41;;;;;;;25.17;16.57;;;0.80;99.90;;;;;;5015244;28;20207;-67
2022/12/11 12:29:22;;;;;;;25.77;17.97;;;0.80;99.90;;;;;;5015452;28;20191;-67
2022/12/11 12:32:02;;;;;;;19.57;15.53;;;0.80;99.90;;;;;;5015321;28;20257;-67
2022/12/11 12:34:37;;;;;;;19.97;14.23;;;0.80;99.90;;;;;;5015044;28;20476;-67
2022/12/11 12:37:21;;;;;;;20.70;15.03;;;0.90;99.90;;;;;;5015065;28;20160;-67
2022/12/11 12:39:56;;;;;;;22.17;15.60;;;0.90;99.90;;;;;;4997242;28;20207;-67
2022/12/11 12:42:25;;;;;;;26.63;17.03;;;0.90;99.90;;;;;;5013741;28;20245;-67
2022/12/11 12:45:14;;;;;;;24.60;16.03;;;0.90;99.90;;;;;;5015103;28;20176;-69
2022/12/11 12:47:43;;;;;;;20.50;14.17;;;0.90;99.90;;;;;;4977747;28;20230;-68
2022/12/11 12:50:16;;;;;;;22.83;15.97;;;0.90;99.90;;;;;;5014991;28;20184;-68
2022/12/11 12:52:43;;;;;;;17.97;14.93;;;0.90;99.90;;;;;;5014997;28;20278;-69
2022/12/11 12:55:15;;;;;;;20.87;15.13;;;0.90;99.90;;;;;;5015135;28;20179;-68
2022/12/11 12:57:59;;;;;;;23.63;15.80;;;0.90;99.90;;;;;;5015020;28;20183;-68
2022/12/11 13:00:42;;;;;;;16.83;14.20;;;0.90;99.90;;;;;;5013628;28;20212;-68